createdAt,value
2023-08-08T00:00:47.741Z,86.92
2023-08-08T00:03:14.569Z,87.80
2023-08-08T00:05:42.665Z,85.86
2023-08-08T00:08:09.256Z,86.49
2023-08-08T00:10:35.835Z,86.88
2023-08-08T00:13:02.519Z,86.79
2023-08-08T00:15:29.181Z,87.58
2023-08-08T00:17:55.797Z,87.51
2023-08-08T00:20:22.520Z,87.72
2023-08-08T00:22:50.571Z,87.66
2023-08-08T00:25:17.144Z,86.40
2023-08-08T00:27:45.530Z,86.00
2023-08-08T00:30:13.045Z,87.93
2023-08-08T00:32:39.617Z,87.22
2023-08-08T00:35:07.120Z,87.32
2023-08-08T00:37:33.657Z,87.61
2023-08-08T00:40:03.129Z,88.13
2023-08-08T00:42:29.912Z,86.10
2023-08-08T00:44:56.574Z,86.20
2023-08-08T00:47:23.238Z,86.88
2023-08-08T00:49:49.874Z,87.25
2023-08-08T00:52:16.664Z,88.54
2023-08-08T00:54:43.421Z,88.83
2023-08-08T00:57:11.654Z,88.16
2023-08-08T00:59:38.179Z,87.39
2023-08-08T01:02:05.390Z,88.35
2023-08-08T01:04:32.031Z,87.66
2023-08-08T01:07:06.525Z,87.22
2023-08-08T01:09:39.927Z,86.55
2023-08-08T01:12:09.061Z,88.66
2023-08-08T01:14:37.929Z,88.21
2023-08-08T01:17:06.237Z,87.29
2023-08-08T01:19:35.977Z,86.64
2023-08-08T01:22:07.382Z,87.66
2023-08-08T01:24:35.905Z,87.39
2023-08-08T01:27:02.594Z,87.52
2023-08-08T01:29:29.369Z,87.23
2023-08-08T01:31:56.269Z,89.97
2023-08-08T01:34:23.609Z,88.18
2023-08-08T01:36:58.367Z,88.25
2023-08-08T01:39:28.421Z,88.01
2023-08-08T01:41:57.611Z,89.37
2023-08-08T01:44:25.728Z,87.25
2023-08-08T01:46:53.381Z,87.96
2023-08-08T01:49:22.455Z,87.29
2023-08-08T01:51:49.574Z,88.51
2023-08-08T01:54:16.402Z,88.32
2023-08-08T01:56:42.996Z,86.97
2023-08-08T01:59:11.005Z,87.09
2023-08-08T02:01:38.535Z,88.19
2023-08-08T02:04:05.988Z,86.67
2023-08-08T02:06:32.912Z,87.63
2023-08-08T02:08:59.843Z,88.47
2023-08-08T02:11:26.619Z,89.00
2023-08-08T02:13:53.997Z,88.34
2023-08-08T02:16:21.981Z,89.25
2023-08-08T02:18:48.694Z,88.80
2023-08-08T02:21:15.234Z,87.97
2023-08-08T02:23:41.801Z,88.30
2023-08-08T02:26:08.403Z,87.35
2023-08-08T02:28:35.051Z,89.13
2023-08-08T02:31:01.690Z,87.19
2023-08-08T02:33:29.619Z,86.50
2023-08-08T02:35:56.174Z,86.51
2023-08-08T02:38:22.809Z,85.44
2023-08-08T02:40:49.318Z,87.06
2023-08-08T02:43:16.814Z,86.54
2023-08-08T02:45:43.593Z,87.11
2023-08-08T02:48:10.163Z,87.11
2023-08-08T02:50:39.241Z,87.27
2023-08-08T02:53:06.832Z,86.37
2023-08-08T02:55:38.282Z,85.88
2023-08-08T02:58:05.161Z,86.68
2023-08-08T03:00:32.500Z,88.12
2023-08-08T03:03:00.381Z,89.14
2023-08-08T03:05:27.218Z,87.15
2023-08-08T03:07:55.598Z,87.71
2023-08-08T03:10:23.892Z,87.23
2023-08-08T03:12:50.578Z,87.66
2023-08-08T03:15:17.806Z,87.39
2023-08-08T03:17:44.903Z,86.74
2023-08-08T03:20:12.647Z,87.71
2023-08-08T03:22:39.748Z,88.61
2023-08-08T03:25:09.597Z,87.42
2023-08-08T03:27:36.270Z,88.60
2023-08-08T03:30:03.315Z,87.22
2023-08-08T03:32:36.222Z,88.09
2023-08-08T03:35:02.836Z,88.17
2023-08-08T03:37:29.613Z,86.82
2023-08-08T03:39:56.393Z,86.99
2023-08-08T03:42:25.327Z,87.57
2023-08-08T03:44:51.924Z,88.33
2023-08-08T03:47:20.233Z,87.13
2023-08-08T03:49:47.832Z,90.05
2023-08-08T03:52:14.719Z,87.26
2023-08-08T03:54:41.550Z,89.24
2023-08-08T03:57:08.259Z,88.34
2023-08-08T03:59:36.625Z,88.17
2023-08-08T04:02:03.864Z,89.22
2023-08-08T04:04:30.832Z,88.37
2023-08-08T04:06:58.621Z,88.16
2023-08-08T04:09:25.138Z,89.27
2023-08-08T04:11:51.645Z,88.90
2023-08-08T04:14:18.257Z,86.99
2023-08-08T04:16:46.194Z,87.63
2023-08-08T04:19:12.749Z,86.30
2023-08-08T04:21:39.395Z,87.45
2023-08-08T04:24:06.414Z,88.46
2023-08-08T04:26:38.396Z,86.58
2023-08-08T04:29:04.935Z,87.09
2023-08-08T04:31:31.540Z,87.36
2023-08-08T04:34:01.959Z,85.75
2023-08-08T04:36:29.710Z,85.92
2023-08-08T04:38:56.494Z,85.71
2023-08-08T04:41:25.037Z,85.49
2023-08-08T04:43:51.690Z,87.13
2023-08-08T04:46:19.262Z,86.59
2023-08-08T04:48:45.824Z,85.38
2023-08-08T04:51:16.732Z,85.33
2023-08-08T04:53:43.261Z,86.44
2023-08-08T04:56:09.814Z,86.38
2023-08-08T04:58:36.413Z,86.75
2023-08-08T05:01:03.137Z,86.34
2023-08-08T05:03:29.805Z,87.76
2023-08-08T05:05:56.498Z,85.97
2023-08-08T05:08:24.468Z,84.57
2023-08-08T05:10:51.037Z,86.11
2023-08-08T05:13:17.603Z,83.98
2023-08-08T05:15:44.149Z,85.08
2023-08-08T05:18:10.729Z,85.28
2023-08-08T05:20:37.278Z,83.75
2023-08-08T05:23:04.123Z,83.24
2023-08-08T05:25:32.042Z,83.69
2023-08-08T05:27:58.610Z,83.01
2023-08-08T05:30:25.208Z,83.17
2023-08-08T05:32:52.162Z,82.29
2023-08-08T05:35:18.709Z,82.19
2023-08-08T05:37:45.424Z,84.59
2023-08-08T05:40:12.300Z,82.38
2023-08-08T05:42:40.416Z,81.07
2023-08-08T05:45:08.364Z,82.46
2023-08-08T05:47:35.213Z,83.19
2023-08-08T05:50:01.915Z,81.77
2023-08-08T05:52:28.785Z,82.37
2023-08-08T05:54:55.360Z,81.40
2023-08-08T05:57:21.960Z,83.72
2023-08-08T05:59:50.156Z,82.82
2023-08-08T06:02:18.666Z,84.05
2023-08-08T06:04:45.157Z,82.59
2023-08-08T06:07:11.985Z,83.68
2023-08-08T06:09:38.810Z,83.45
2023-08-08T06:12:06.625Z,82.35
2023-08-08T06:14:33.328Z,84.03
2023-08-08T06:17:01.222Z,83.49
2023-08-08T06:19:27.791Z,82.82
2023-08-08T06:21:54.460Z,82.68
2023-08-08T06:24:21.081Z,82.93
2023-08-08T06:26:47.697Z,82.14
2023-08-08T06:29:14.465Z,82.18
2023-08-08T06:31:41.191Z,84.65
2023-08-08T06:34:09.636Z,83.14
2023-08-08T06:36:36.402Z,82.21
2023-08-08T06:39:03.144Z,83.37
2023-08-08T06:41:29.795Z,82.31
2023-08-08T06:43:56.451Z,84.53
2023-08-08T06:46:23.200Z,84.50
2023-08-08T06:48:49.823Z,83.25
2023-08-08T06:51:17.802Z,83.08
2023-08-08T06:53:44.372Z,83.92
2023-08-08T06:56:11.115Z,82.76
2023-08-08T06:58:37.735Z,83.42
2023-08-08T07:01:07.600Z,82.99
2023-08-08T07:03:40.940Z,82.28
2023-08-08T07:06:22.217Z,82.25
2023-08-08T07:08:52.187Z,82.71
2023-08-08T07:11:24.204Z,82.46
2023-08-08T07:14:02.552Z,81.53
2023-08-08T07:16:31.967Z,80.71
2023-08-08T07:19:00.446Z,80.64
2023-08-08T07:21:27.581Z,80.25
2023-08-08T07:23:58.256Z,80.59
2023-08-08T07:26:27.092Z,79.70
2023-08-08T07:29:10.195Z,80.27
2023-08-08T07:34:40.945Z,81.45
2023-08-08T07:37:27.367Z,81.61
2023-08-08T07:40:23.931Z,81.61
2023-08-08T07:43:16.257Z,83.08
2023-08-08T07:45:52.250Z,81.98
2023-08-08T07:48:24.893Z,83.65
2023-08-08T07:51:12.125Z,83.26
2023-08-08T08:51:25.501Z,85.80
2023-08-08T08:53:53.154Z,85.90
2023-08-08T08:56:21.086Z,86.22
2023-08-08T08:58:48.079Z,86.81
2023-08-08T09:01:20.983Z,87.54
2023-08-08T09:03:51.391Z,88.30
2023-08-08T09:06:23.155Z,89.72
2023-08-08T09:09:00.201Z,89.25
2023-08-08T09:11:34.016Z,86.74
2023-08-08T09:14:04.471Z,87.85
2023-08-08T09:16:37.453Z,87.75
2023-08-08T09:19:04.609Z,85.58
2023-08-08T09:21:34.095Z,84.96
2023-08-08T09:24:15.747Z,85.90
2023-08-08T09:26:42.971Z,84.06
2023-08-08T09:29:11.717Z,86.44
2023-08-08T09:31:38.585Z,86.18
2023-08-08T09:34:05.921Z,86.29
2023-08-08T09:36:34.491Z,88.04
2023-08-08T09:39:03.420Z,85.74
2023-08-08T09:41:31.274Z,84.01
2023-08-08T09:44:00.416Z,82.67
2023-08-08T09:46:31.863Z,82.17
2023-08-08T09:49:07.252Z,81.53
2023-08-08T09:51:34.305Z,78.09
2023-08-08T09:54:04.065Z,77.07
2023-08-08T09:56:32.027Z,76.51
2023-08-08T09:59:00.412Z,74.70
2023-08-08T10:01:32.692Z,74.65
2023-08-08T10:04:04.703Z,74.17
2023-08-08T10:06:31.680Z,72.18
2023-08-08T10:08:59.451Z,71.42
2023-08-08T10:11:29.097Z,69.69
2023-08-08T10:13:58.649Z,69.83
2023-08-08T10:16:28.254Z,68.78
2023-08-08T10:18:59.981Z,70.50
2023-08-08T10:21:36.506Z,71.97
2023-08-08T10:24:11.917Z,68.46
2023-08-08T10:26:55.848Z,71.67
2023-08-08T10:29:27.556Z,72.62
2023-08-08T10:31:59.413Z,71.59
2023-08-08T10:34:37.412Z,71.10
2023-08-08T10:37:12.639Z,71.53
2023-08-08T10:39:52.135Z,71.70
2023-08-08T10:42:24.785Z,71.46
2023-08-08T10:44:55.580Z,72.45
2023-08-08T10:47:32.812Z,71.80
2023-08-08T10:50:11.901Z,72.97
2023-08-08T10:52:57.039Z,74.64
2023-08-08T10:55:25.881Z,75.67
2023-08-08T10:58:04.302Z,77.35
2023-08-08T11:00:33.105Z,75.96
2023-08-08T11:03:01.161Z,74.69
2023-08-08T11:05:33.020Z,74.28
2023-08-08T11:08:00.962Z,73.70
2023-08-08T11:10:33.529Z,74.82
2023-08-08T11:13:11.391Z,73.70
2023-08-08T11:15:40.142Z,73.79
2023-08-08T11:18:12.476Z,73.04
2023-08-08T11:20:40.944Z,74.55
2023-08-08T11:23:08.343Z,71.92
2023-08-08T11:25:35.359Z,70.22
2023-08-08T11:28:07.008Z,69.21
2023-08-08T11:30:40.520Z,69.20
2023-08-08T11:35:46.551Z,66.39
2023-08-08T11:38:17.362Z,65.81
2023-08-08T11:40:44.734Z,62.20
2023-08-08T11:43:14.881Z,65.63
2023-08-08T11:45:41.641Z,64.69
2023-08-08T11:48:09.583Z,64.17
2023-08-08T11:50:38.354Z,60.34
2023-08-08T11:53:06.250Z,58.33
2023-08-08T11:55:34.998Z,60.73
2023-08-08T11:58:13.489Z,59.53
2023-08-08T12:00:44.292Z,60.54
2023-08-08T12:03:16.085Z,60.30
2023-08-08T12:05:49.061Z,61.05
2023-08-08T12:08:18.750Z,62.26
2023-08-08T12:10:54.035Z,62.58
2023-08-08T12:13:26.638Z,63.25
2023-08-08T12:15:56.511Z,62.24
2023-08-08T12:18:27.671Z,62.94
2023-08-08T12:20:57.475Z,62.13
2023-08-08T12:23:24.176Z,60.24
2023-08-08T12:25:55.192Z,60.32
2023-08-08T12:28:29.074Z,59.92
2023-08-08T12:30:57.573Z,61.00
2023-08-08T12:33:29.678Z,58.70
2023-08-08T12:35:59.313Z,55.72
2023-08-08T12:38:33.112Z,57.93
2023-08-08T12:41:04.226Z,59.85
2023-08-08T12:43:33.004Z,57.21
2023-08-08T12:46:06.946Z,57.93
2023-08-08T12:48:36.874Z,54.81
2023-08-08T12:51:18.374Z,56.45
2023-08-08T12:53:47.613Z,51.74
2023-08-08T12:56:18.375Z,53.75
2023-08-08T12:58:53.349Z,54.09
2023-08-08T13:01:24.264Z,54.96
2023-08-08T13:04:09.266Z,53.53
2023-08-08T13:06:37.639Z,55.25
2023-08-08T13:09:09.045Z,54.92
2023-08-08T13:11:41.209Z,57.47
2023-08-08T13:14:09.837Z,58.95
2023-08-08T13:16:44.774Z,59.98
2023-08-08T13:19:17.520Z,60.99
2023-08-08T13:21:53.647Z,60.71
2023-08-08T13:24:26.915Z,59.79
2023-08-08T13:26:59.252Z,58.67
2023-08-08T13:29:27.946Z,60.04
2023-08-08T13:32:05.179Z,60.20
2023-08-08T13:34:33.208Z,61.52
2023-08-08T13:37:00.248Z,60.52
2023-08-08T13:39:28.621Z,61.25
2023-08-08T13:41:55.345Z,60.14
2023-08-08T13:44:22.112Z,59.08
2023-08-08T13:46:56.822Z,59.15
2023-08-08T13:49:27.834Z,54.66
2023-08-08T13:51:55.134Z,55.40
2023-08-08T14:00:35.474Z,52.33
2023-08-08T14:03:06.138Z,52.62
2023-08-08T14:08:44.665Z,53.39
2023-08-08T15:04:01.705Z,62.22
2023-08-08T15:07:39.637Z,62.51
2023-08-08T15:23:31.620Z,61.35
2023-08-08T15:26:45.908Z,62.56
2023-08-08T15:29:29.781Z,62.16
2023-08-08T15:33:01.885Z,63.72
2023-08-08T15:39:27.522Z,64.32
2023-08-08T15:53:42.834Z,63.99
2023-08-08T15:59:44.234Z,64.17
2023-08-08T16:06:36.225Z,63.52
2023-08-08T16:20:41.818Z,64.51
2023-08-08T16:23:51.000Z,64.98
2023-08-08T16:27:06.362Z,65.15
2023-08-08T16:32:52.733Z,64.38
2023-08-08T16:35:45.329Z,65.71
2023-08-08T16:38:47.224Z,64.53
2023-08-08T16:45:20.847Z,64.68
2023-08-08T16:47:53.774Z,66.23
2023-08-08T16:53:38.511Z,66.77
2023-08-08T16:56:13.379Z,65.16
2023-08-08T16:58:52.339Z,65.41
2023-08-08T17:01:42.968Z,65.69
2023-08-08T17:07:03.345Z,64.88
2023-08-08T17:09:37.438Z,64.93
2023-08-08T17:12:20.797Z,65.54
2023-08-08T17:18:08.320Z,64.14
2023-08-08T17:23:24.054Z,61.89
2023-08-08T17:25:55.888Z,63.18
2023-08-08T17:35:32.179Z,63.29
2023-08-08T17:38:11.042Z,61.39
2023-08-08T17:41:26.337Z,62.88
2023-08-08T17:44:20.535Z,63.84
2023-08-08T17:50:34.084Z,63.67
2023-08-08T17:57:10.186Z,64.88
2023-08-08T17:59:38.798Z,64.62
2023-08-08T18:02:32.089Z,64.32
2023-08-08T18:05:05.207Z,64.55
2023-08-08T18:07:36.240Z,64.07
2023-08-08T18:10:23.944Z,64.07
2023-08-08T18:13:17.741Z,65.10
2023-08-08T18:15:53.766Z,64.88
2023-08-08T18:18:28.204Z,64.38
2023-08-08T18:20:55.233Z,65.39
2023-08-08T18:23:31.167Z,64.22
2023-08-08T18:26:03.257Z,65.26
2023-08-08T18:28:30.325Z,65.42
2023-08-08T18:31:04.439Z,66.03
2023-08-08T18:33:37.223Z,67.23
2023-08-08T18:36:07.510Z,67.65
2023-08-08T18:38:35.782Z,67.53
2023-08-08T18:41:08.892Z,68.12
2023-08-08T18:43:44.258Z,67.18
2023-08-08T18:46:20.188Z,68.23
2023-08-08T18:48:55.870Z,69.10
2023-08-08T18:51:22.693Z,69.95
2023-08-08T18:53:56.363Z,68.13
2023-08-08T18:56:26.264Z,68.05
2023-08-08T18:58:55.738Z,67.96
2023-08-08T19:01:23.640Z,67.35
2023-08-08T19:03:50.490Z,66.93
2023-08-08T19:06:17.458Z,68.04
2023-08-08T19:08:44.209Z,68.07
2023-08-08T19:11:10.900Z,69.55
2023-08-08T19:13:37.431Z,68.68
2023-08-08T19:16:04.263Z,69.74
2023-08-08T19:18:32.354Z,70.48
2023-08-08T19:20:59.033Z,71.27
2023-08-08T19:23:25.597Z,70.95
2023-08-08T19:25:52.344Z,71.88
2023-08-08T19:28:18.898Z,71.49
2023-08-08T19:30:45.500Z,72.95
2023-08-08T19:33:12.105Z,71.72
2023-08-08T19:35:40.083Z,72.19
2023-08-08T19:38:06.624Z,73.28
2023-08-08T19:40:35.480Z,74.00
2023-08-08T19:43:02.070Z,73.21
2023-08-08T19:45:28.660Z,73.76
2023-08-08T19:47:55.284Z,73.02
2023-08-08T19:50:22.138Z,73.50
2023-08-08T19:52:50.076Z,74.49
2023-08-08T19:55:17.168Z,74.34
2023-08-08T19:57:47.427Z,74.92
2023-08-08T20:00:24.827Z,74.42
2023-08-08T20:02:54.288Z,74.99
2023-08-08T20:05:23.076Z,74.38
2023-08-08T20:07:58.337Z,75.73
2023-08-08T20:10:36.214Z,75.18
2023-08-08T20:13:13.336Z,75.42
2023-08-08T20:15:42.860Z,75.96
2023-08-08T20:18:13.370Z,75.52
2023-08-08T20:20:51.616Z,75.24
2023-08-08T20:23:26.626Z,75.85
2023-08-08T20:26:01.108Z,74.94
2023-08-08T20:28:31.353Z,76.52
2023-08-08T20:31:09.782Z,75.83
2023-08-08T20:33:43.218Z,76.51
2023-08-08T20:36:29.742Z,75.76
2023-08-08T20:39:07.049Z,77.56
2023-08-08T20:41:38.721Z,77.13
2023-08-08T20:44:14.785Z,78.28
2023-08-08T20:46:45.598Z,77.69
2023-08-08T20:49:12.355Z,76.52
2023-08-08T20:51:44.246Z,77.44
2023-08-08T20:54:17.444Z,76.76
2023-08-08T20:56:56.112Z,77.39
2023-08-08T20:59:28.481Z,77.39
2023-08-08T21:02:00.619Z,77.54
2023-08-08T21:04:35.251Z,77.16
2023-08-08T21:07:23.113Z,77.51
2023-08-08T21:10:17.188Z,77.96
2023-08-08T21:12:50.080Z,78.25
2023-08-08T21:15:28.923Z,77.44
2023-08-08T21:18:26.976Z,77.18
2023-08-08T21:21:12.874Z,78.26
2023-08-08T21:23:46.890Z,78.08
2023-08-08T21:26:26.246Z,77.72
2023-08-08T21:29:01.206Z,78.66
2023-08-08T21:31:34.245Z,79.18
2023-08-08T21:34:10.044Z,78.49
2023-08-08T21:36:41.427Z,79.77
2023-08-08T21:39:10.909Z,79.67
2023-08-08T21:41:48.729Z,79.50
2023-08-08T21:44:19.389Z,79.60
2023-08-08T21:46:56.855Z,80.96
2023-08-08T21:49:42.424Z,81.60
2023-08-08T21:52:19.589Z,80.46
2023-08-08T21:54:46.335Z,80.93
2023-08-08T21:57:16.860Z,81.16
2023-08-08T21:59:47.666Z,81.05
2023-08-08T22:02:41.864Z,81.70
2023-08-08T22:05:28.395Z,80.46
2023-08-08T22:08:12.587Z,80.87
2023-08-08T22:10:43.814Z,80.86
2023-08-08T22:13:17.415Z,81.89
2023-08-08T22:15:50.225Z,82.47
2023-08-08T22:18:24.402Z,80.69
2023-08-08T22:21:02.520Z,81.91
2023-08-08T22:23:36.117Z,82.33
2023-08-08T22:26:13.973Z,81.53
2023-08-08T22:28:57.946Z,81.18
2023-08-08T22:32:14.349Z,81.40
2023-08-08T22:35:06.886Z,82.24
2023-08-08T22:37:41.883Z,80.80
2023-08-08T22:40:10.459Z,81.62
2023-08-08T22:42:41.457Z,80.99
2023-08-08T22:45:17.660Z,82.38
2023-08-08T22:47:52.213Z,81.97
2023-08-08T22:50:28.138Z,82.45
2023-08-08T22:53:07.319Z,81.48
2023-08-08T22:56:01.180Z,82.24
2023-08-08T22:58:30.169Z,81.80
2023-08-08T23:01:09.922Z,82.88
2023-08-08T23:03:46.054Z,82.31
2023-08-08T23:06:26.589Z,82.72
2023-08-08T23:09:00.915Z,80.92
2023-08-08T23:11:45.056Z,81.51
2023-08-08T23:14:30.006Z,82.54
2023-08-08T23:17:00.871Z,81.53
2023-08-08T23:19:52.887Z,82.47
2023-08-08T23:22:24.110Z,81.47
2023-08-08T23:24:54.723Z,82.56
2023-08-08T23:27:36.101Z,82.25
2023-08-08T23:30:08.273Z,82.33
2023-08-08T23:32:46.641Z,82.70
2023-08-08T23:35:31.998Z,82.18
2023-08-08T23:38:03.305Z,82.20
2023-08-08T23:40:34.746Z,81.69
2023-08-08T23:43:04.432Z,80.72
2023-08-08T23:45:42.824Z,81.35
2023-08-08T23:48:20.935Z,80.26
2023-08-08T23:50:51.990Z,81.50
2023-08-08T23:53:28.874Z,80.75
2023-08-08T23:56:11.951Z,80.61
2023-08-08T23:58:43.820Z,79.55
